sensor_id;sensor_type;location;lat;lon;timestamp;temperature;humidity
5415;DHT22;2730;51.512;7.504;2023-12-04T00:00:17;1.00;1.00
5415;DHT22;2730;51.512;7.504;2023-12-04T00:02:44;1.00;99.90
5415;DHT22;2730;51.512;7.504;2023-12-04T00:05:10;1.00;1.00
5415;DHT22;2730;51.512;7.504;2023-12-04T00:07:36;1.00;1.00
5415;DHT22;2730;51.512;7.504;2023-12-04T00:10:04;1.00;1.00
5415;DHT22;2730;51.512;7.504;2023-12-04T00:12:31;1.00;99.90
5415;DHT22;2730;51.512;7.504;2023-12-04T00:14:57;1.00;1.00
5415;DHT22;2730;51.512;7.504;2023-12-04T00:17:25;1.10;99.90
5415;DHT22;2730;51.512;7.504;2023-12-04T00:19:52;1.00;99.90
5415;DHT22;2730;51.512;7.504;2023-12-04T00:22:19;1.00;99.90
5415;DHT22;2730;51.512;7.504;2023-12-04T00:24:49;1.00;1.00
5415;DHT22;2730;51.512;7.504;2023-12-04T00:27:16;1.00;48.00
5415;DHT22;2730;51.512;7.504;2023-12-04T00:29:42;1.00;1.00
5415;DHT22;2730;51.512;7.504;2023-12-04T00:32:09;1.00;1.00
5415;DHT22;2730;51.512;7.504;2023-12-04T00:34:37;1.00;1.00
5415;DHT22;2730;51.512;7.504;2023-12-04T00:37:06;1.00;1.00
5415;DHT22;2730;51.512;7.504;2023-12-04T00:39:33;0.90;1.00
5415;DHT22;2730;51.512;7.504;2023-12-04T00:42:01;0.90;1.00
5415;DHT22;2730;51.512;7.504;2023-12-04T00:44:30;1.00;1.00
5415;DHT22;2730;51.512;7.504;2023-12-04T00:46:59;0.90;1.00
5415;DHT22;2730;51.512;7.504;2023-12-04T00:49:28;0.90;99.90
5415;DHT22;2730;51.512;7.504;2023-12-04T00:51:56;1.10;99.90
5415;DHT22;2730;51.512;7.504;2023-12-04T00:54:23;1.10;99.90
5415;DHT22;2730;51.512;7.504;2023-12-04T00:56:50;1.20;99.90
5415;DHT22;2730;51.512;7.504;2023-12-04T00:59:17;1.20;84.90
5415;DHT22;2730;51.512;7.504;2023-12-04T01:01:43;1.20;1.00
5415;DHT22;2730;51.512;7.504;2023-12-04T01:04:10;1.20;1.00
5415;DHT22;2730;51.512;7.504;2023-12-04T01:06:37;1.20;1.00
5415;DHT22;2730;51.512;7.504;2023-12-04T01:09:05;1.20;1.00
5415;DHT22;2730;51.512;7.504;2023-12-04T01:11:32;1.20;1.00
5415;DHT22;2730;51.512;7.504;2023-12-04T01:13:59;1.20;1.00
5415;DHT22;2730;51.512;7.504;2023-12-04T01:16:26;1.20;1.00
5415;DHT22;2730;51.512;7.504;2023-12-04T01:18:54;1.20;1.00
5415;DHT22;2730;51.512;7.504;2023-12-04T01:21:20;1.20;1.00
5415;DHT22;2730;51.512;7.504;2023-12-04T01:23:47;1.20;1.00
5415;DHT22;2730;51.512;7.504;2023-12-04T01:26:15;1.30;1.00
5415;DHT22;2730;51.512;7.504;2023-12-04T01:28:42;1.30;1.00
5415;DHT22;2730;51.512;7.504;2023-12-04T01:31:09;1.30;1.00
5415;DHT22;2730;51.512;7.504;2023-12-04T01:33:37;1.30;1.00
5415;DHT22;2730;51.512;7.504;2023-12-04T01:36:04;1.30;99.90
5415;DHT22;2730;51.512;7.504;2023-12-04T01:38:32;1.30;99.90
5415;DHT22;2730;51.512;7.504;2023-12-04T01:40:59;1.30;99.90
5415;DHT22;2730;51.512;7.504;2023-12-04T01:43:29;1.30;99.90
5415;DHT22;2730;51.512;7.504;2023-12-04T01:45:56;1.30;99.90
5415;DHT22;2730;51.512;7.504;2023-12-04T01:48:23;1.40;99.90
5415;DHT22;2730;51.512;7.504;2023-12-04T01:50:52;1.40;99.90
5415;DHT22;2730;51.512;7.504;2023-12-04T01:53:20;1.30;99.90
5415;DHT22;2730;51.512;7.504;2023-12-04T01:55:47;1.30;99.90
5415;DHT22;2730;51.512;7.504;2023-12-04T01:58:15;1.30;99.90
5415;DHT22;2730;51.512;7.504;2023-12-04T02:00:44;1.30;99.90
5415;DHT22;2730;51.512;7.504;2023-12-04T02:03:11;1.30;99.90
5415;DHT22;2730;51.512;7.504;2023-12-04T02:05:39;1.40;99.90
5415;DHT22;2730;51.512;7.504;2023-12-04T02:08:06;1.30;99.90
5415;DHT22;2730;51.512;7.504;2023-12-04T02:10:33;1.30;99.90
5415;DHT22;2730;51.512;7.504;2023-12-04T02:13:00;1.30;99.90
5415;DHT22;2730;51.512;7.504;2023-12-04T02:15:27;1.30;99.90
5415;DHT22;2730;51.512;7.504;2023-12-04T02:17:55;1.30;99.90
5415;DHT22;2730;51.512;7.504;2023-12-04T02:20:31;1.30;99.90
5415;DHT22;2730;51.512;7.504;2023-12-04T02:22:57;1.20;99.90
5415;DHT22;2730;51.512;7.504;2023-12-04T02:25:26;1.30;99.90
5415;DHT22;2730;51.512;7.504;2023-12-04T02:27:54;1.20;99.90
5415;DHT22;2730;51.512;7.504;2023-12-04T02:30:23;1.20;99.90
5415;DHT22;2730;51.512;7.504;2023-12-04T02:32:51;1.20;99.90
5415;DHT22;2730;51.512;7.504;2023-12-04T02:35:21;1.20;99.90
5415;DHT22;2730;51.512;7.504;2023-12-04T02:37:49;1.20;99.90
5415;DHT22;2730;51.512;7.504;2023-12-04T02:40:19;1.30;99.90
5415;DHT22;2730;51.512;7.504;2023-12-04T02:42:47;1.20;99.90
5415;DHT22;2730;51.512;7.504;2023-12-04T02:45:14;1.30;99.90
5415;DHT22;2730;51.512;7.504;2023-12-04T02:47:41;1.30;99.90
5415;DHT22;2730;51.512;7.504;2023-12-04T02:50:08;1.40;73.60
5415;DHT22;2730;51.512;7.504;2023-12-04T02:52:35;1.50;66.50
5415;DHT22;2730;51.512;7.504;2023-12-04T02:55:02;1.50;5.80
5415;DHT22;2730;51.512;7.504;2023-12-04T02:57:29;1.50;1.00
5415;DHT22;2730;51.512;7.504;2023-12-04T02:59:57;1.50;8.40
5415;DHT22;2730;51.512;7.504;2023-12-04T03:02:24;1.50;1.00
5415;DHT22;2730;51.512;7.504;2023-12-04T03:04:51;1.50;1.00
5415;DHT22;2730;51.512;7.504;2023-12-04T03:07:18;1.60;1.00
5415;DHT22;2730;51.512;7.504;2023-12-04T03:09:45;1.60;1.00
5415;DHT22;2730;51.512;7.504;2023-12-04T03:12:12;1.60;1.00
5415;DHT22;2730;51.512;7.504;2023-12-04T03:14:39;1.70;1.00
5415;DHT22;2730;51.512;7.504;2023-12-04T03:17:07;1.70;1.00
5415;DHT22;2730;51.512;7.504;2023-12-04T03:19:36;1.70;1.00
5415;DHT22;2730;51.512;7.504;2023-12-04T03:22:03;1.70;1.00
5415;DHT22;2730;51.512;7.504;2023-12-04T03:24:30;1.80;1.00
5415;DHT22;2730;51.512;7.504;2023-12-04T03:26:57;1.80;1.00
5415;DHT22;2730;51.512;7.504;2023-12-04T03:29:24;1.80;1.00
5415;DHT22;2730;51.512;7.504;2023-12-04T03:31:51;1.70;1.00
5415;DHT22;2730;51.512;7.504;2023-12-04T03:34:20;1.70;1.00
5415;DHT22;2730;51.512;7.504;2023-12-04T03:36:48;1.80;1.00
5415;DHT22;2730;51.512;7.504;2023-12-04T03:39:17;1.70;1.00
5415;DHT22;2730;51.512;7.504;2023-12-04T03:41:44;1.70;1.00
5415;DHT22;2730;51.512;7.504;2023-12-04T03:44:14;1.70;1.00
5415;DHT22;2730;51.512;7.504;2023-12-04T03:46:41;1.80;99.90
5415;DHT22;2730;51.512;7.504;2023-12-04T03:49:08;1.70;1.00
5415;DHT22;2730;51.512;7.504;2023-12-04T03:51:36;1.80;99.90
5415;DHT22;2730;51.512;7.504;2023-12-04T03:54:03;1.80;1.00
5415;DHT22;2730;51.512;7.504;2023-12-04T03:56:30;1.80;99.90
5415;DHT22;2730;51.512;7.504;2023-12-04T03:58:57;1.80;99.90
5415;DHT22;2730;51.512;7.504;2023-12-04T04:01:24;1.80;99.90
5415;DHT22;2730;51.512;7.504;2023-12-04T04:03:52;1.80;99.90
5415;DHT22;2730;51.512;7.504;2023-12-04T04:06:19;1.90;99.90
5415;DHT22;2730;51.512;7.504;2023-12-04T04:08:47;1.90;99.90
5415;DHT22;2730;51.512;7.504;2023-12-04T04:11:14;2.00;99.90
5415;DHT22;2730;51.512;7.504;2023-12-04T04:13:41;2.10;99.90
5415;DHT22;2730;51.512;7.504;2023-12-04T04:16:13;2.20;99.90
5415;DHT22;2730;51.512;7.504;2023-12-04T04:18:40;2.10;99.90
5415;DHT22;2730;51.512;7.504;2023-12-04T04:21:07;2.10;99.90
5415;DHT22;2730;51.512;7.504;2023-12-04T04:23:34;2.10;99.90
5415;DHT22;2730;51.512;7.504;2023-12-04T04:26:03;2.20;99.90
5415;DHT22;2730;51.512;7.504;2023-12-04T04:28:30;2.20;99.90
5415;DHT22;2730;51.512;7.504;2023-12-04T04:30:57;2.10;99.90
5415;DHT22;2730;51.512;7.504;2023-12-04T04:33:23;2.10;99.90
5415;DHT22;2730;51.512;7.504;2023-12-04T04:35:54;2.20;99.90
5415;DHT22;2730;51.512;7.504;2023-12-04T04:38:21;2.20;99.90
5415;DHT22;2730;51.512;7.504;2023-12-04T04:40:47;2.10;99.90
5415;DHT22;2730;51.512;7.504;2023-12-04T04:43:15;2.20;99.90
5415;DHT22;2730;51.512;7.504;2023-12-04T04:45:43;2.20;99.90
5415;DHT22;2730;51.512;7.504;2023-12-04T04:48:10;2.10;99.90
5415;DHT22;2730;51.512;7.504;2023-12-04T04:50:37;2.10;99.90
5415;DHT22;2730;51.512;7.504;2023-12-04T04:53:03;2.00;99.90
5415;DHT22;2730;51.512;7.504;2023-12-04T04:55:30;2.00;99.90
5415;DHT22;2730;51.512;7.504;2023-12-04T04:57:57;2.10;99.90
5415;DHT22;2730;51.512;7.504;2023-12-04T05:00:25;2.00;99.90
5415;DHT22;2730;51.512;7.504;2023-12-04T05:02:52;2.00;99.90
5415;DHT22;2730;51.512;7.504;2023-12-04T05:05:19;1.90;99.90
5415;DHT22;2730;51.512;7.504;2023-12-04T05:07:46;1.80;99.90
5415;DHT22;2730;51.512;7.504;2023-12-04T05:10:14;1.80;99.90
5415;DHT22;2730;51.512;7.504;2023-12-04T05:12:40;1.80;99.90
5415;DHT22;2730;51.512;7.504;2023-12-04T05:15:08;1.90;99.90
5415;DHT22;2730;51.512;7.504;2023-12-04T05:17:36;1.80;99.90
5415;DHT22;2730;51.512;7.504;2023-12-04T05:20:07;1.80;99.90
5415;DHT22;2730;51.512;7.504;2023-12-04T05:22:36;1.80;99.90
5415;DHT22;2730;51.512;7.504;2023-12-04T05:25:03;1.80;99.90
5415;DHT22;2730;51.512;7.504;2023-12-04T05:27:30;1.80;99.90
5415;DHT22;2730;51.512;7.504;2023-12-04T05:29:57;1.80;99.90
5415;DHT22;2730;51.512;7.504;2023-12-04T05:32:24;1.80;99.90
5415;DHT22;2730;51.512;7.504;2023-12-04T05:34:54;1.80;99.90
5415;DHT22;2730;51.512;7.504;2023-12-04T05:37:21;1.80;99.90
5415;DHT22;2730;51.512;7.504;2023-12-04T05:39:48;1.90;99.90
5415;DHT22;2730;51.512;7.504;2023-12-04T05:42:15;1.90;99.90
5415;DHT22;2730;51.512;7.504;2023-12-04T05:44:45;1.90;99.90
5415;DHT22;2730;51.512;7.504;2023-12-04T05:47:12;1.90;99.90
5415;DHT22;2730;51.512;7.504;2023-12-04T05:49:40;2.00;99.90
5415;DHT22;2730;51.512;7.504;2023-12-04T05:52:09;1.90;99.90
5415;DHT22;2730;51.512;7.504;2023-12-04T05:54:37;2.00;99.90
5415;DHT22;2730;51.512;7.504;2023-12-04T05:57:04;2.10;99.90
5415;DHT22;2730;51.512;7.504;2023-12-04T05:59:31;2.20;99.90
5415;DHT22;2730;51.512;7.504;2023-12-04T06:02:01;2.30;99.90
5415;DHT22;2730;51.512;7.504;2023-12-04T06:04:28;2.30;99.90
5415;DHT22;2730;51.512;7.504;2023-12-04T06:06:55;2.30;99.90
5415;DHT22;2730;51.512;7.504;2023-12-04T06:09:23;2.30;99.90
5415;DHT22;2730;51.512;7.504;2023-12-04T06:11:50;2.20;99.90
5415;DHT22;2730;51.512;7.504;2023-12-04T06:14:20;2.20;99.90
5415;DHT22;2730;51.512;7.504;2023-12-04T06:16:47;2.20;99.90
5415;DHT22;2730;51.512;7.504;2023-12-04T06:19:14;2.20;99.90
5415;DHT22;2730;51.512;7.504;2023-12-04T06:21:40;2.20;99.90
5415;DHT22;2730;51.512;7.504;2023-12-04T06:24:08;2.30;99.90
5415;DHT22;2730;51.512;7.504;2023-12-04T06:26:42;2.20;99.90
5415;DHT22;2730;51.512;7.504;2023-12-04T06:29:10;2.10;99.90
5415;DHT22;2730;51.512;7.504;2023-12-04T06:31:37;2.20;99.90
5415;DHT22;2730;51.512;7.504;2023-12-04T06:34:04;2.20;99.90
5415;DHT22;2730;51.512;7.504;2023-12-04T06:36:37;2.20;99.90
5415;DHT22;2730;51.512;7.504;2023-12-04T06:39:06;2.10;99.90
5415;DHT22;2730;51.512;7.504;2023-12-04T06:41:37;2.10;99.90
5415;DHT22;2730;51.512;7.504;2023-12-04T06:44:06;2.20;99.90
5415;DHT22;2730;51.512;7.504;2023-12-04T06:46:36;2.20;99.90
5415;DHT22;2730;51.512;7.504;2023-12-04T06:49:05;2.10;99.90
5415;DHT22;2730;51.512;7.504;2023-12-04T06:51:32;2.10;99.90
5415;DHT22;2730;51.512;7.504;2023-12-04T06:53:59;2.00;99.90
5415;DHT22;2730;51.512;7.504;2023-12-04T06:56:26;2.10;99.90
5415;DHT22;2730;51.512;7.504;2023-12-04T06:58:53;2.10;99.90
5415;DHT22;2730;51.512;7.504;2023-12-04T07:01:21;2.10;99.90
5415;DHT22;2730;51.512;7.504;2023-12-04T07:03:48;2.10;99.90
5415;DHT22;2730;51.512;7.504;2023-12-04T07:06:15;2.00;99.90
5415;DHT22;2730;51.512;7.504;2023-12-04T07:08:42;2.00;99.90
5415;DHT22;2730;51.512;7.504;2023-12-04T07:11:09;2.00;99.90
5415;DHT22;2730;51.512;7.504;2023-12-04T07:13:36;2.00;99.90
5415;DHT22;2730;51.512;7.504;2023-12-04T07:16:03;2.10;99.90
5415;DHT22;2730;51.512;7.504;2023-12-04T07:18:32;2.00;99.90
5415;DHT22;2730;51.512;7.504;2023-12-04T07:21:02;2.00;99.90
5415;DHT22;2730;51.512;7.504;2023-12-04T07:23:29;2.00;99.90
5415;DHT22;2730;51.512;7.504;2023-12-04T07:25:56;2.00;99.90
5415;DHT22;2730;51.512;7.504;2023-12-04T07:28:23;2.00;99.90
5415;DHT22;2730;51.512;7.504;2023-12-04T07:30:54;2.00;99.90
5415;DHT22;2730;51.512;7.504;2023-12-04T07:33:22;2.00;99.90
5415;DHT22;2730;51.512;7.504;2023-12-04T07:35:50;2.10;99.90
5415;DHT22;2730;51.512;7.504;2023-12-04T07:38:17;2.20;96.70
5415;DHT22;2730;51.512;7.504;2023-12-04T07:40:44;2.30;88.10
5415;DHT22;2730;51.512;7.504;2023-12-04T07:43:11;2.20;99.50
5415;DHT22;2730;51.512;7.504;2023-12-04T07:45:41;2.20;92.30
5415;DHT22;2730;51.512;7.504;2023-12-04T07:48:07;2.20;91.50
5415;DHT22;2730;51.512;7.504;2023-12-04T07:50:35;2.40;73.40
5415;DHT22;2730;51.512;7.504;2023-12-04T07:53:06;2.40;54.30
5415;DHT22;2730;51.512;7.504;2023-12-04T07:55:38;2.40;48.20
5415;DHT22;2730;51.512;7.504;2023-12-04T07:58:06;2.60;29.30
5415;DHT22;2730;51.512;7.504;2023-12-04T08:00:33;2.60;33.70
5415;DHT22;2730;51.512;7.504;2023-12-04T08:02:59;2.60;24.70
5415;DHT22;2730;51.512;7.504;2023-12-04T08:05:26;2.60;28.20
5415;DHT22;2730;51.512;7.504;2023-12-04T08:07:53;2.50;28.50
5415;DHT22;2730;51.512;7.504;2023-12-04T08:10:22;2.50;18.50
5415;DHT22;2730;51.512;7.504;2023-12-04T08:12:49;2.60;20.80
5415;DHT22;2730;51.512;7.504;2023-12-04T08:15:17;2.60;19.80
5415;DHT22;2730;51.512;7.504;2023-12-04T08:17:43;2.60;13.10
5415;DHT22;2730;51.512;7.504;2023-12-04T08:20:11;2.70;6.80
5415;DHT22;2730;51.512;7.504;2023-12-04T08:22:39;2.70;9.20
5415;DHT22;2730;51.512;7.504;2023-12-04T08:25:10;2.80;13.70
5415;DHT22;2730;51.512;7.504;2023-12-04T08:27:38;2.80;18.20
5415;DHT22;2730;51.512;7.504;2023-12-04T08:30:05;2.80;1.00
5415;DHT22;2730;51.512;7.504;2023-12-04T08:32:32;2.90;1.00
5415;DHT22;2730;51.512;7.504;2023-12-04T08:34:59;2.80;1.00
5415;DHT22;2730;51.512;7.504;2023-12-04T08:37:26;2.90;2.30
5415;DHT22;2730;51.512;7.504;2023-12-04T08:39:53;2.90;9.60
5415;DHT22;2730;51.512;7.504;2023-12-04T08:42:19;2.90;1.00
5415;DHT22;2730;51.512;7.504;2023-12-04T08:44:49;2.90;1.00
5415;DHT22;2730;51.512;7.504;2023-12-04T08:47:15;3.00;1.00
5415;DHT22;2730;51.512;7.504;2023-12-04T08:49:43;3.00;1.00
5415;DHT22;2730;51.512;7.504;2023-12-04T08:52:11;3.10;1.00
5415;DHT22;2730;51.512;7.504;2023-12-04T08:54:39;3.00;1.00
5415;DHT22;2730;51.512;7.504;2023-12-04T08:57:06;3.00;1.00
5415;DHT22;2730;51.512;7.504;2023-12-04T08:59:33;3.00;1.00
5415;DHT22;2730;51.512;7.504;2023-12-04T09:02:01;3.00;1.00
5415;DHT22;2730;51.512;7.504;2023-12-04T09:04:29;3.00;1.00
5415;DHT22;2730;51.512;7.504;2023-12-04T09:06:59;3.00;1.00
5415;DHT22;2730;51.512;7.504;2023-12-04T09:09:26;3.10;1.00
5415;DHT22;2730;51.512;7.504;2023-12-04T09:11:52;3.10;1.00
5415;DHT22;2730;51.512;7.504;2023-12-04T09:14:19;3.00;1.00
5415;DHT22;2730;51.512;7.504;2023-12-04T09:16:46;3.10;1.00
5415;DHT22;2730;51.512;7.504;2023-12-04T09:19:16;3.10;1.00
5415;DHT22;2730;51.512;7.504;2023-12-04T09:21:42;3.20;1.00
5415;DHT22;2730;51.512;7.504;2023-12-04T09:24:10;3.30;1.00
5415;DHT22;2730;51.512;7.504;2023-12-04T09:26:36;3.30;1.00
5415;DHT22;2730;51.512;7.504;2023-12-04T09:29:03;3.30;1.00
5415;DHT22;2730;51.512;7.504;2023-12-04T09:31:31;3.30;1.00
5415;DHT22;2730;51.512;7.504;2023-12-04T09:33:58;3.30;1.00
5415;DHT22;2730;51.512;7.504;2023-12-04T09:36:26;3.30;1.00
5415;DHT22;2730;51.512;7.504;2023-12-04T09:38:53;3.50;1.00
5415;DHT22;2730;51.512;7.504;2023-12-04T09:41:20;3.50;1.00
5415;DHT22;2730;51.512;7.504;2023-12-04T09:43:47;3.50;1.00
5415;DHT22;2730;51.512;7.504;2023-12-04T09:46:15;3.50;1.00
5415;DHT22;2730;51.512;7.504;2023-12-04T09:48:44;3.50;1.00
5415;DHT22;2730;51.512;7.504;2023-12-04T09:51:13;3.50;1.00
5415;DHT22;2730;51.512;7.504;2023-12-04T09:53:43;3.50;1.00
5415;DHT22;2730;51.512;7.504;2023-12-04T09:56:10;3.60;1.00
5415;DHT22;2730;51.512;7.504;2023-12-04T09:58:40;3.60;1.00
5415;DHT22;2730;51.512;7.504;2023-12-04T10:01:07;3.70;1.00
5415;DHT22;2730;51.512;7.504;2023-12-04T10:03:35;3.70;1.00
5415;DHT22;2730;51.512;7.504;2023-12-04T10:06:02;3.60;1.00
5415;DHT22;2730;51.512;7.504;2023-12-04T10:08:30;3.50;1.00
5415;DHT22;2730;51.512;7.504;2023-12-04T10:10:59;3.60;1.00
5415;DHT22;2730;51.512;7.504;2023-12-04T10:13:27;3.60;1.00
5415;DHT22;2730;51.512;7.504;2023-12-04T10:15:53;3.80;1.00
5415;DHT22;2730;51.512;7.504;2023-12-04T10:18:27;3.80;1.00
5415;DHT22;2730;51.512;7.504;2023-12-04T10:20:56;3.70;1.00
5415;DHT22;2730;51.512;7.504;2023-12-04T10:23:36;3.70;1.00
5415;DHT22;2730;51.512;7.504;2023-12-04T10:26:05;3.60;1.00
5415;DHT22;2730;51.512;7.504;2023-12-04T10:28:33;3.60;1.00
5415;DHT22;2730;51.512;7.504;2023-12-04T10:31:00;3.60;1.00
5415;DHT22;2730;51.512;7.504;2023-12-04T10:33:29;3.60;1.00
5415;DHT22;2730;51.512;7.504;2023-12-04T10:35:56;3.70;1.00
5415;DHT22;2730;51.512;7.504;2023-12-04T10:38:23;3.80;1.00
5415;DHT22;2730;51.512;7.504;2023-12-04T10:40:53;3.90;1.00
5415;DHT22;2730;51.512;7.504;2023-12-04T10:43:22;4.00;1.00
5415;DHT22;2730;51.512;7.504;2023-12-04T10:45:50;4.00;1.00
5415;DHT22;2730;51.512;7.504;2023-12-04T10:48:19;4.10;1.00
5415;DHT22;2730;51.512;7.504;2023-12-04T10:50:48;4.10;1.00
5415;DHT22;2730;51.512;7.504;2023-12-04T10:53:16;4.20;1.00
5415;DHT22;2730;51.512;7.504;2023-12-04T10:55:43;4.10;1.00
5415;DHT22;2730;51.512;7.504;2023-12-04T10:58:14;4.10;1.00
5415;DHT22;2730;51.512;7.504;2023-12-04T11:00:45;4.20;1.00
5415;DHT22;2730;51.512;7.504;2023-12-04T11:03:15;4.10;1.00
5415;DHT22;2730;51.512;7.504;2023-12-04T11:05:44;4.00;1.00
5415;DHT22;2730;51.512;7.504;2023-12-04T11:08:16;4.00;1.00
5415;DHT22;2730;51.512;7.504;2023-12-04T11:10:53;4.10;1.00
5415;DHT22;2730;51.512;7.504;2023-12-04T11:13:26;4.10;1.00
5415;DHT22;2730;51.512;7.504;2023-12-04T11:16:01;4.20;1.00
5415;DHT22;2730;51.512;7.504;2023-12-04T11:18:31;4.10;1.00
5415;DHT22;2730;51.512;7.504;2023-12-04T11:21:02;4.10;1.00
5415;DHT22;2730;51.512;7.504;2023-12-04T11:23:32;4.10;1.00
5415;DHT22;2730;51.512;7.504;2023-12-04T11:26:00;4.10;1.00
5415;DHT22;2730;51.512;7.504;2023-12-04T11:28:29;4.20;1.00
5415;DHT22;2730;51.512;7.504;2023-12-04T11:30:58;4.20;1.00
5415;DHT22;2730;51.512;7.504;2023-12-04T11:33:26;4.10;1.00
5415;DHT22;2730;51.512;7.504;2023-12-04T11:36:06;4.10;1.00
5415;DHT22;2730;51.512;7.504;2023-12-04T11:38:34;4.10;1.00
5415;DHT22;2730;51.512;7.504;2023-12-04T11:41:14;4.10;6.40
5415;DHT22;2730;51.512;7.504;2023-12-04T11:43:42;4.10;4.70
5415;DHT22;2730;51.512;7.504;2023-12-04T11:46:11;4.10;21.00
5415;DHT22;2730;51.512;7.504;2023-12-04T11:48:38;4.00;28.90
5415;DHT22;2730;51.512;7.504;2023-12-04T11:51:06;4.00;27.50
5415;DHT22;2730;51.512;7.504;2023-12-04T11:53:37;4.00;24.20
5415;DHT22;2730;51.512;7.504;2023-12-04T11:56:10;4.00;33.50
5415;DHT22;2730;51.512;7.504;2023-12-04T11:58:44;4.10;42.20
5415;DHT22;2730;51.512;7.504;2023-12-04T12:01:16;3.90;52.70
5415;DHT22;2730;51.512;7.504;2023-12-04T12:03:44;3.80;80.50
5415;DHT22;2730;51.512;7.504;2023-12-04T12:06:12;3.90;94.20
5415;DHT22;2730;51.512;7.504;2023-12-04T12:08:39;3.90;90.30
5415;DHT22;2730;51.512;7.504;2023-12-04T12:11:06;3.80;97.20
5415;DHT22;2730;51.512;7.504;2023-12-04T12:13:33;3.90;99.90
5415;DHT22;2730;51.512;7.504;2023-12-04T12:16:00;3.90;99.90
5415;DHT22;2730;51.512;7.504;2023-12-04T12:18:29;3.90;99.90
5415;DHT22;2730;51.512;7.504;2023-12-04T12:20:58;3.90;99.90
5415;DHT22;2730;51.512;7.504;2023-12-04T12:23:26;3.80;99.90
5415;DHT22;2730;51.512;7.504;2023-12-04T12:25:54;3.80;99.90
5415;DHT22;2730;51.512;7.504;2023-12-04T12:28:22;3.70;99.90
5415;DHT22;2730;51.512;7.504;2023-12-04T12:30:48;3.70;99.90
5415;DHT22;2730;51.512;7.504;2023-12-04T12:33:15;3.80;99.90
5415;DHT22;2730;51.512;7.504;2023-12-04T12:35:44;3.70;99.90
5415;DHT22;2730;51.512;7.504;2023-12-04T12:38:13;3.70;99.90
5415;DHT22;2730;51.512;7.504;2023-12-04T12:40:40;3.70;99.90
5415;DHT22;2730;51.512;7.504;2023-12-04T12:43:08;3.70;99.90
5415;DHT22;2730;51.512;7.504;2023-12-04T12:45:40;3.70;99.90
5415;DHT22;2730;51.512;7.504;2023-12-04T12:48:10;3.80;1.00
5415;DHT22;2730;51.512;7.504;2023-12-04T12:50:37;3.80;1.00
5415;DHT22;2730;51.512;7.504;2023-12-04T12:53:05;3.80;1.00
5415;DHT22;2730;51.512;7.504;2023-12-04T12:55:32;3.90;1.00
5415;DHT22;2730;51.512;7.504;2023-12-04T12:58:02;3.90;1.00
5415;DHT22;2730;51.512;7.504;2023-12-04T13:00:32;3.80;1.00
5415;DHT22;2730;51.512;7.504;2023-12-04T13:02:59;3.90;1.00
5415;DHT22;2730;51.512;7.504;2023-12-04T13:05:28;3.90;1.00
5415;DHT22;2730;51.512;7.504;2023-12-04T13:07:55;3.90;1.00
5415;DHT22;2730;51.512;7.504;2023-12-04T13:10:23;3.90;1.00
5415;DHT22;2730;51.512;7.504;2023-12-04T13:12:52;3.90;1.00
5415;DHT22;2730;51.512;7.504;2023-12-04T13:15:20;4.00;1.00
5415;DHT22;2730;51.512;7.504;2023-12-04T13:17:48;3.90;1.00
5415;DHT22;2730;51.512;7.504;2023-12-04T13:20:14;3.70;1.00
5415;DHT22;2730;51.512;7.504;2023-12-04T13:22:42;3.70;1.00
5415;DHT22;2730;51.512;7.504;2023-12-04T13:25:10;3.80;1.00
5415;DHT22;2730;51.512;7.504;2023-12-04T13:27:39;3.70;1.00
5415;DHT22;2730;51.512;7.504;2023-12-04T13:30:07;3.70;1.00
5415;DHT22;2730;51.512;7.504;2023-12-04T13:32:34;3.60;1.00
5415;DHT22;2730;51.512;7.504;2023-12-04T13:35:02;3.60;1.00
5415;DHT22;2730;51.512;7.504;2023-12-04T13:37:30;3.50;1.00
5415;DHT22;2730;51.512;7.504;2023-12-04T13:39:57;3.50;1.00
5415;DHT22;2730;51.512;7.504;2023-12-04T13:42:24;3.40;26.20
5415;DHT22;2730;51.512;7.504;2023-12-04T13:45:11;3.50;36.90
5415;DHT22;2730;51.512;7.504;2023-12-04T13:47:38;3.40;99.90
5415;DHT22;2730;51.512;7.504;2023-12-04T13:50:06;3.40;99.90
5415;DHT22;2730;51.512;7.504;2023-12-04T13:52:35;3.40;99.90
5415;DHT22;2730;51.512;7.504;2023-12-04T13:55:05;3.40;99.90
5415;DHT22;2730;51.512;7.504;2023-12-04T13:57:42;3.40;99.90
5415;DHT22;2730;51.512;7.504;2023-12-04T14:00:27;3.40;99.90
5415;DHT22;2730;51.512;7.504;2023-12-04T14:02:54;3.40;99.90
5415;DHT22;2730;51.512;7.504;2023-12-04T14:05:29;3.40;99.90
5415;DHT22;2730;51.512;7.504;2023-12-04T14:08:04;3.50;99.90
5415;DHT22;2730;51.512;7.504;2023-12-04T14:10:32;3.50;99.90
5415;DHT22;2730;51.512;7.504;2023-12-04T14:12:59;3.60;99.90
5415;DHT22;2730;51.512;7.504;2023-12-04T14:15:30;3.60;99.90
5415;DHT22;2730;51.512;7.504;2023-12-04T14:17:56;3.50;99.90
5415;DHT22;2730;51.512;7.504;2023-12-04T14:20:23;3.60;99.90
5415;DHT22;2730;51.512;7.504;2023-12-04T14:22:51;3.60;99.90
5415;DHT22;2730;51.512;7.504;2023-12-04T14:25:20;3.50;99.90
5415;DHT22;2730;51.512;7.504;2023-12-04T14:27:47;3.50;99.90
5415;DHT22;2730;51.512;7.504;2023-12-04T14:30:14;3.50;1.00
5415;DHT22;2730;51.512;7.504;2023-12-04T14:32:42;3.50;1.00
5415;DHT22;2730;51.512;7.504;2023-12-04T14:35:09;3.50;1.00
5415;DHT22;2730;51.512;7.504;2023-12-04T14:37:36;3.50;1.00
5415;DHT22;2730;51.512;7.504;2023-12-04T14:40:03;3.40;1.00
5415;DHT22;2730;51.512;7.504;2023-12-04T14:42:30;3.50;1.00
5415;DHT22;2730;51.512;7.504;2023-12-04T14:44:57;3.40;1.00
5415;DHT22;2730;51.512;7.504;2023-12-04T14:47:26;3.50;1.00
5415;DHT22;2730;51.512;7.504;2023-12-04T14:49:55;3.40;1.00
5415;DHT22;2730;51.512;7.504;2023-12-04T14:52:23;3.30;1.00
5415;DHT22;2730;51.512;7.504;2023-12-04T14:54:55;3.30;4.60
5415;DHT22;2730;51.512;7.504;2023-12-04T14:57:48;3.30;23.70
5415;DHT22;2730;51.512;7.504;2023-12-04T15:00:38;3.30;1.00
5415;DHT22;2730;51.512;7.504;2023-12-04T15:03:37;3.30;1.00
5415;DHT22;2730;51.512;7.504;2023-12-04T15:06:55;3.30;1.00
5415;DHT22;2730;51.512;7.504;2023-12-04T15:09:52;3.30;1.00
5415;DHT22;2730;51.512;7.504;2023-12-04T15:12:37;3.30;4.60
5415;DHT22;2730;51.512;7.504;2023-12-04T15:15:29;3.30;18.00
5415;DHT22;2730;51.512;7.504;2023-12-04T15:18:07;3.30;74.10
5415;DHT22;2730;51.512;7.504;2023-12-04T15:20:51;3.30;99.90
5415;DHT22;2730;51.512;7.504;2023-12-04T15:23:19;3.30;43.10
5415;DHT22;2730;51.512;7.504;2023-12-04T15:25:46;3.30;1.00
5415;DHT22;2730;51.512;7.504;2023-12-04T15:28:12;3.30;1.00
5415;DHT22;2730;51.512;7.504;2023-12-04T15:30:40;3.30;1.00
5415;DHT22;2730;51.512;7.504;2023-12-04T15:33:06;3.30;1.00
5415;DHT22;2730;51.512;7.504;2023-12-04T15:35:33;3.30;30.30
5415;DHT22;2730;51.512;7.504;2023-12-04T15:38:00;3.30;5.30
5415;DHT22;2730;51.512;7.504;2023-12-04T15:40:29;3.30;1.00
5415;DHT22;2730;51.512;7.504;2023-12-04T15:42:58;3.30;1.00
5415;DHT22;2730;51.512;7.504;2023-12-04T15:45:25;3.30;1.00
5415;DHT22;2730;51.512;7.504;2023-12-04T15:47:52;3.30;1.00
5415;DHT22;2730;51.512;7.504;2023-12-04T15:50:19;3.30;13.50
5415;DHT22;2730;51.512;7.504;2023-12-04T15:52:48;3.30;32.40
5415;DHT22;2730;51.512;7.504;2023-12-04T15:55:14;3.20;99.90
5415;DHT22;2730;51.512;7.504;2023-12-04T15:57:42;3.20;39.80
5415;DHT22;2730;51.512;7.504;2023-12-04T16:00:14;3.30;27.90
5415;DHT22;2730;51.512;7.504;2023-12-04T16:02:42;3.30;1.00
5415;DHT22;2730;51.512;7.504;2023-12-04T16:05:09;3.30;1.00
5415;DHT22;2730;51.512;7.504;2023-12-04T16:07:36;3.30;1.00
5415;DHT22;2730;51.512;7.504;2023-12-04T16:10:05;3.30;30.60
5415;DHT22;2730;51.512;7.504;2023-12-04T16:12:32;3.30;18.50
5415;DHT22;2730;51.512;7.504;2023-12-04T16:15:00;3.40;1.00
5415;DHT22;2730;51.512;7.504;2023-12-04T16:17:29;3.30;1.00
5415;DHT22;2730;51.512;7.504;2023-12-04T16:19:55;3.30;1.00
5415;DHT22;2730;51.512;7.504;2023-12-04T16:22:25;3.30;43.70
5415;DHT22;2730;51.512;7.504;2023-12-04T16:24:52;3.30;95.60
5415;DHT22;2730;51.512;7.504;2023-12-04T16:27:19;3.30;99.90
5415;DHT22;2730;51.512;7.504;2023-12-04T16:29:45;3.40;1.00
5415;DHT22;2730;51.512;7.504;2023-12-04T16:32:15;3.50;1.00